Terminal Aerodrome Forecast
Issued by NWS

Home | Current Version | Previous Version | Graphics & Text | Print | Product List | Glossary On
Versions: 1 2 3 4 5 6 7 8 9 10 11 12 13 14 15 16
064
FTUS42 KMHX 221324 AAC
TAFOAJ
TAF AMD
KOAJ 221324Z 2213/2312 00000KT P6SM SCT006
      TEMPO 2213/2214 BKN006
     FM221400 00000KT P6SM FEW050
     FM230500 00000KT P6SM FEW050
      AMD LTD TO CLD VIS AND WIND=

USA.gov is the U.S. government's official web portal to all federal, state and local government web resources and services.